Welcome to the Philippines vACC

Providing virtual air traffic control coverage to the 7,641 islands of the Philippines

vACC Philippines is a recognized member of the VATSIM network. We are dedicated to enhancing the online experience of both local and international virtual pilots. Mandated to provide professional and realistic air traffic operations.

vACC Philippines aims to provide the most realistic air traffic system simulation service that is close to the real thing as possible when flying on the VATSIM network.

VATSEA Logo
VATSIM Logo

Upcoming Event

Fly-in-Fridays

[04/30/2021] Fly-in-Fridays

READ MORE

Online Controllers

There are no available controllers at this time.

Weather

RPLL RPLL 231500Z 22005KT 9999 FEW025 28/24 Q1009 NOSIG RMK A2980
RPVM RPVM 231500Z 23007KT 9999 FEW020 BKN100 28/24 Q1010 RMK A2983
RPMD RPMD 231500Z 09004KT 9999 FEW016 27/27 Q1010 RMK A2983

Charts

Enter ICAO code starting with RP

Online Pilots

SNK901A321RPLL - RPVE
RPC1801BN2PRPUX - RPVV
ATX831A321RPVE - RPSP
PLG102TBM9VHHH - RPUO
RAGE888A321RPVE - RPLL
PLG101 TBM9VHHH - RPUO
SIA494A20NRPLL - WSSS
MAS509A359RPLL - WMKK
APG212A21NRPMZ - RPMN
CEB901A321RPLL - RPVE
RPC123C172RPLL - RPLC
PAL301A321VHHH - RPLL
PAL321A320RPLL - ZKPY
PAL508B738WSSS - RPLL
SNK121A321RPMD - RPSP